Alexandria, South Dakota
Current Conditions -  °F | °C
As of 11:07 PM on Thursday 30 Oct 2014 (Local Time) from KMHE Reporting Station
Overcast Overcast  
Wind Chill: 24°   Ceiling: 2900
Heat Index: 35°   Visibility: 10mi
Dew Point: 24°   Wind: 21mph
Humidity: 64%   Direction: 10°N
Pressure: 30.53"   Gusts: NA
Location:  43.65°N, 97.78°W
Report Text: KMHE 310407Z AUTO 01018KT 10SM OVC029 02/M04 A3053 RMK AO2 T00171044
Loading
Personal Weather Stations






























Interactive Weather Map
Tropical Storm Tracking
New forecast layout! Learn more

10-Day Weather Forecast

Advertisements
Track Severe Weather on mobile